createdAt,value
2018-05-29T00:02:11.434Z,19.30
2018-05-29T00:04:39.960Z,19.30
2018-05-29T00:07:07.127Z,19.30
2018-05-29T00:09:34.253Z,19.30
2018-05-29T00:12:02.177Z,19.40
2018-05-29T00:14:29.217Z,19.40
2018-05-29T00:16:57.908Z,19.20
2018-05-29T00:19:25.131Z,19.20
2018-05-29T00:21:52.201Z,19.10
2018-05-29T00:24:19.230Z,19.10
2018-05-29T00:26:46.372Z,19.10
2018-05-29T00:29:13.427Z,19.10
2018-05-29T00:31:40.482Z,19.10
2018-05-29T00:34:07.674Z,19.10
2018-05-29T00:36:34.792Z,19.10
2018-05-29T00:39:01.897Z,19.00
2018-05-29T00:41:29.064Z,19.00
2018-05-29T00:43:56.238Z,18.90
2018-05-29T00:46:25.268Z,19.00
2018-05-29T00:48:52.422Z,18.90
2018-05-29T00:51:20.266Z,18.90
2018-05-29T00:53:47.409Z,18.80
2018-05-29T00:56:14.501Z,18.90
2018-05-29T00:58:41.601Z,18.90
2018-05-29T01:01:09.466Z,19.00
2018-05-29T01:03:37.574Z,18.90
2018-05-29T01:06:04.626Z,18.90
2018-05-29T01:08:31.682Z,18.80
2018-05-29T01:11:00.434Z,18.60
2018-05-29T01:13:27.488Z,18.60
2018-05-29T01:15:54.602Z,18.60
2018-05-29T01:18:22.599Z,18.50
2018-05-29T01:20:49.669Z,18.50
2018-05-29T01:23:16.799Z,18.40
2018-05-29T01:25:44.621Z,18.20
2018-05-29T01:28:11.758Z,18.20
2018-05-29T01:30:38.842Z,18.20
2018-05-29T01:33:05.937Z,18.20
2018-05-29T01:35:33.026Z,18.20
2018-05-29T01:38:00.127Z,18.20
2018-05-29T01:40:27.213Z,18.20
2018-05-29T01:42:55.076Z,18.00
2018-05-29T01:45:22.182Z,17.90
2018-05-29T01:47:49.224Z,17.90
2018-05-29T01:50:17.043Z,17.80
2018-05-29T01:52:44.395Z,17.80
2018-05-29T01:55:11.442Z,17.80
2018-05-29T01:57:39.626Z,17.90
2018-05-29T02:00:07.484Z,17.80
2018-05-29T02:02:34.550Z,17.80
2018-05-29T02:05:02.365Z,17.70
2018-05-29T02:07:29.508Z,17.70
2018-05-29T02:09:56.550Z,17.70
2018-05-29T02:12:24.387Z,17.60
2018-05-29T02:14:51.474Z,17.50
2018-05-29T02:17:19.273Z,17.50
2018-05-29T02:19:47.106Z,17.50
2018-05-29T02:22:14.187Z,17.50
2018-05-29T02:24:41.369Z,17.40
2018-05-29T02:27:08.393Z,17.30
2018-05-29T02:29:35.439Z,17.30
2018-05-29T02:32:02.499Z,17.30
2018-05-29T02:34:29.612Z,17.30
2018-05-29T02:36:57.423Z,17.30
2018-05-29T02:39:24.506Z,17.30
2018-05-29T02:41:51.661Z,17.30
2018-05-29T02:44:18.704Z,17.40
2018-05-29T02:46:45.759Z,17.50
2018-05-29T02:49:12.911Z,17.50
2018-05-29T02:52:10.468Z,17.60
2018-05-29T02:54:42.737Z,17.60
2018-05-29T02:57:15.274Z,17.50
2018-05-29T02:59:54.592Z,17.50
2018-05-29T03:02:25.374Z,17.40
2018-05-29T03:04:58.121Z,17.40
2018-05-29T03:07:25.340Z,17.50
2018-05-29T03:09:54.880Z,17.30
2018-05-29T03:12:25.113Z,17.30
2018-05-29T03:14:56.137Z,17.30
2018-05-29T03:17:25.026Z,17.30
2018-05-29T03:19:55.752Z,17.40
2018-05-29T03:22:29.887Z,17.30
2018-05-29T03:24:56.963Z,17.20
2018-05-29T03:27:25.590Z,17.10
2018-05-29T03:29:56.285Z,17.00
2018-05-29T03:32:24.941Z,17.00
2018-05-29T03:34:55.564Z,17.00
2018-05-29T03:37:25.250Z,17.00
2018-05-29T03:48:57.691Z,17.10
2018-05-29T03:51:25.792Z,17.20
2018-05-29T03:53:58.385Z,17.30
2018-05-29T03:56:25.912Z,17.20
2018-05-29T04:01:57.250Z,17.40
2018-05-29T04:04:29.830Z,17.50
2018-05-29T04:21:00.834Z,17.90
2018-05-29T04:44:55.822Z,18.20
2018-05-29T04:47:26.338Z,18.20
2018-05-29T04:49:54.078Z,18.20
2018-05-29T04:52:27.671Z,18.30
2018-05-29T04:54:57.440Z,18.40
2018-05-29T04:57:24.594Z,18.30
2018-05-29T04:59:55.766Z,18.60
2018-05-29T05:02:23.273Z,18.60
2018-05-29T05:04:51.635Z,18.60
2018-05-29T05:07:20.074Z,18.90
2018-05-29T05:09:55.029Z,19.10
2018-05-29T05:12:22.197Z,19.10
2018-05-29T05:14:49.341Z,19.20
2018-05-29T05:20:40.118Z,19.50
2018-05-29T05:23:07.365Z,19.50
2018-05-29T05:25:34.479Z,19.50
2018-05-29T05:28:02.331Z,19.70
2018-05-29T05:30:55.557Z,19.70
2018-05-29T05:33:24.974Z,19.70
2018-05-29T05:35:55.835Z,20.00
2018-05-29T05:38:24.417Z,20.10
2018-05-29T05:40:55.352Z,20.30
2018-05-29T05:43:22.502Z,20.40
2018-05-29T05:48:24.801Z,20.80
2018-05-29T05:50:57.639Z,21.00
2018-05-29T05:53:25.310Z,21.00
2018-05-29T05:55:56.070Z,21.20
2018-05-29T05:58:24.792Z,21.40
2018-05-29T06:00:56.880Z,21.40
2018-05-29T06:03:25.405Z,21.40
2018-05-29T06:05:56.125Z,21.50
2018-05-29T06:08:23.349Z,21.70
2018-05-29T06:10:56.619Z,21.80
2018-05-29T06:13:25.562Z,22.00
2018-05-29T06:15:55.252Z,22.20
2018-05-29T08:42:16.681Z,28.00
2018-05-29T08:44:43.942Z,28.30
2018-05-29T08:47:11.010Z,28.30
2018-05-29T08:49:38.145Z,28.60
2018-05-29T08:52:15.826Z,28.70
2018-05-29T08:54:43.367Z,28.90
2018-05-29T09:03:06.191Z,28.80
2018-05-29T09:11:42.859Z,28.60
2018-05-29T09:23:07.609Z,28.50
2018-05-29T09:34:25.056Z,28.60
2018-05-29T09:45:31.063Z,29.20
2018-05-29T09:47:58.202Z,29.10
2018-05-29T09:50:25.275Z,29.50
2018-05-29T09:52:53.154Z,29.80
2018-05-29T09:55:20.168Z,29.80
2018-05-29T09:57:47.292Z,30.20
2018-05-29T10:00:14.442Z,30.40
2018-05-29T10:02:42.262Z,30.70
2018-05-29T10:05:09.711Z,30.70
2018-05-29T10:10:17.315Z,31.30
2018-05-29T10:12:54.622Z,31.40
2018-05-29T10:15:25.421Z,31.50
2018-05-29T10:17:54.989Z,31.40
2018-05-29T10:20:25.656Z,31.40
2018-05-29T10:22:52.767Z,31.50
2018-05-29T10:25:19.812Z,31.60
2018-05-29T10:27:55.309Z,31.50
2018-05-29T10:30:24.926Z,31.60
2018-05-29T10:32:55.631Z,31.50
2018-05-29T10:35:27.130Z,31.20
2018-05-29T10:37:54.948Z,31.10
2018-05-29T10:40:22.023Z,31.10
2018-05-29T10:42:51.066Z,31.00
2018-05-29T10:45:18.922Z,30.90
2018-05-29T10:47:45.978Z,30.80
2018-05-29T10:50:15.438Z,30.80
2018-05-29T10:52:42.649Z,30.60
2018-05-29T10:55:09.795Z,30.70
2018-05-29T10:57:43.522Z,30.90
2018-05-29T11:00:17.073Z,31.00
2018-05-29T11:05:25.462Z,31.20
2018-05-29T11:10:56.824Z,31.70
2018-05-29T11:13:54.190Z,31.70
2018-05-29T11:16:25.163Z,31.80
2018-05-29T11:18:56.282Z,32.10
2018-05-29T11:21:24.628Z,31.80
2018-05-29T11:23:56.287Z,31.80
2018-05-29T11:29:26.866Z,31.60
2018-05-29T11:31:54.825Z,31.40
2018-05-29T11:34:24.659Z,31.30
2018-05-29T11:36:55.480Z,31.60
2018-05-29T11:42:29.668Z,31.20
2018-05-29T11:44:56.801Z,30.90
2018-05-29T11:53:24.464Z,29.50
2018-05-29T11:55:55.260Z,29.00
2018-05-29T11:58:26.132Z,28.60
2018-05-29T12:00:54.565Z,28.30
2018-05-29T12:03:25.203Z,27.90
2018-05-29T12:05:55.902Z,27.40
2018-05-29T12:08:24.490Z,27.20
2018-05-29T12:10:59.152Z,27.30
2018-05-29T12:13:26.259Z,27.50
2018-05-29T12:15:54.751Z,27.60
2018-05-29T12:18:25.498Z,27.70
2018-05-29T12:20:55.941Z,27.70
2018-05-29T12:23:23.354Z,27.70
2018-05-29T12:25:56.620Z,27.40
2018-05-29T12:28:24.567Z,27.50
2018-05-29T12:30:57.046Z,27.40
2018-05-29T12:33:25.353Z,27.40
2018-05-29T12:35:52.414Z,27.40
2018-05-29T12:38:19.551Z,27.30
2018-05-29T12:40:54.899Z,27.20
2018-05-29T12:43:21.945Z,27.10
2018-05-29T12:45:49.001Z,27.10
2018-05-29T12:48:16.067Z,27.10
2018-05-29T12:50:43.101Z,27.00
2018-05-29T12:53:23.240Z,27.00
2018-05-29T12:55:55.904Z,26.80
2018-05-29T12:58:23.721Z,26.40
2018-05-29T13:00:57.193Z,26.30
2018-05-29T13:03:25.092Z,25.90
2018-05-29T13:05:53.472Z,25.90
2018-05-29T13:08:26.687Z,25.80
2018-05-29T13:11:01.188Z,25.80
2018-05-29T13:13:28.242Z,25.60
2018-05-29T13:15:55.307Z,25.50
2018-05-29T13:21:25.060Z,25.40
2018-05-29T13:23:55.399Z,25.40
2018-05-29T13:26:24.419Z,25.40
2018-05-29T13:28:53.326Z,25.30
2018-05-29T13:31:23.985Z,25.30
2018-05-29T13:33:51.083Z,25.30
2018-05-29T13:36:18.201Z,25.20
2018-05-29T13:38:46.069Z,25.00
2018-05-29T13:41:13.897Z,24.80
2018-05-29T13:43:45.231Z,24.80
2018-05-29T13:46:12.310Z,24.50
2018-05-29T13:48:39.395Z,24.70
2018-05-29T13:51:06.441Z,24.90
2018-05-29T13:53:33.581Z,25.20
2018-05-29T13:56:00.797Z,25.20
2018-05-29T13:58:27.845Z,25.30
2018-05-29T14:01:05.539Z,25.20
2018-05-29T14:03:32.661Z,25.00
2018-05-29T14:05:59.715Z,25.10
2018-05-29T14:08:26.807Z,24.80
2018-05-29T14:10:54.936Z,24.70
2018-05-29T14:13:24.752Z,24.80
2018-05-29T14:15:52.585Z,24.90
2018-05-29T14:18:19.639Z,24.90
2018-05-29T14:20:46.683Z,25.00
2018-05-29T14:23:13.811Z,25.00
2018-05-29T14:25:41.658Z,24.60
2018-05-29T14:28:08.838Z,24.50
2018-05-29T14:30:36.713Z,24.40
2018-05-29T14:33:08.225Z,24.10
2018-05-29T14:35:35.361Z,23.60
2018-05-29T14:38:03.312Z,22.80
2018-05-29T14:40:30.390Z,22.80
2018-05-29T14:42:57.462Z,22.30
2018-05-29T14:45:24.919Z,22.30
2018-05-29T14:47:52.185Z,22.20
2018-05-29T14:50:20.041Z,22.00
2018-05-29T14:52:48.090Z,22.00
2018-05-29T14:55:15.388Z,22.00
2018-05-29T14:57:42.508Z,21.20
2018-05-29T15:00:09.579Z,21.20
2018-05-29T15:02:38.747Z,20.90
2018-05-29T15:05:24.005Z,20.90
2018-05-29T15:07:51.858Z,20.90
2018-05-29T15:10:24.694Z,20.90
2018-05-29T15:12:51.808Z,20.90
2018-05-29T15:15:19.064Z,21.00
2018-05-29T15:17:46.412Z,20.90
2018-05-29T15:20:15.329Z,21.00
2018-05-29T15:22:43.550Z,21.00
2018-05-29T15:25:14.706Z,21.20
2018-05-29T15:27:42.821Z,21.20
2018-05-29T15:30:11.943Z,21.20
2018-05-29T15:32:43.765Z,21.10
2018-05-29T15:35:14.791Z,21.20
2018-05-29T15:37:43.466Z,21.30
2018-05-29T15:40:16.003Z,21.40
2018-05-29T15:42:43.113Z,21.50
2018-05-29T15:45:16.873Z,21.50
2018-05-29T15:47:55.201Z,21.50
2018-05-29T15:50:25.947Z,21.60
2018-05-29T15:52:56.741Z,21.60
2018-05-29T15:55:23.976Z,21.60
2018-05-29T15:57:53.690Z,21.60
2018-05-29T16:00:23.598Z,21.70
2018-05-29T16:02:53.450Z,21.70
2018-05-29T16:05:25.077Z,21.70
2018-05-29T16:07:55.855Z,21.70
2018-05-29T16:10:24.296Z,21.70
2018-05-29T16:12:55.396Z,22.00
2018-05-29T16:15:23.998Z,22.00
2018-05-29T16:17:54.354Z,22.10
2018-05-29T16:20:25.098Z,22.30
2018-05-29T16:22:58.393Z,22.40
2018-05-29T16:25:25.695Z,22.40
2018-05-29T16:27:54.959Z,22.50
2018-05-29T16:30:26.909Z,22.30
2018-05-29T16:32:54.241Z,22.30
2018-05-29T16:35:24.762Z,22.30
2018-05-29T16:37:54.936Z,22.40
2018-05-29T16:40:24.592Z,22.40
2018-05-29T16:42:55.482Z,22.30
2018-05-29T16:53:41.907Z,22.30
2018-05-29T16:56:12.171Z,22.30
2018-05-29T16:58:58.534Z,22.30
2018-05-29T17:01:26.030Z,22.20
2018-05-29T17:03:54.784Z,22.10
2018-05-29T17:06:25.393Z,22.10
2018-05-29T17:08:57.421Z,22.00
2018-05-29T17:11:24.662Z,21.90
2018-05-29T17:14:00.248Z,21.90
2018-05-29T17:16:53.292Z,21.80
2018-05-29T17:19:24.401Z,21.80
2018-05-29T17:24:56.842Z,21.70
2018-05-29T17:27:25.390Z,21.60
2018-05-29T17:44:55.188Z,21.80
2018-05-29T17:47:25.881Z,21.80
2018-05-29T17:50:12.555Z,21.80
2018-05-29T17:52:54.193Z,21.70
2018-05-29T17:55:27.034Z,21.70
2018-05-29T17:57:54.852Z,21.60
2018-05-29T18:00:25.341Z,21.50
2018-05-29T18:02:56.392Z,21.50
2018-05-29T18:05:24.833Z,21.50
2018-05-29T18:07:54.658Z,21.50
2018-05-29T18:10:25.210Z,21.40
2018-05-29T18:12:53.620Z,21.40
2018-05-29T18:15:28.052Z,21.20
2018-05-29T18:17:55.113Z,21.10
2018-05-29T18:20:26.068Z,21.20
2018-05-29T18:25:49.558Z,20.90
2018-05-29T18:28:16.636Z,20.90
2018-05-29T18:30:43.725Z,20.90
2018-05-29T18:51:01.458Z,20.40
2018-05-29T18:53:30.129Z,20.40
2018-05-29T18:55:57.426Z,20.40
2018-05-29T18:58:26.828Z,20.40
2018-05-29T19:00:55.774Z,20.40
2018-05-29T19:03:27.041Z,20.40
2018-05-29T19:05:55.003Z,20.30
2018-05-29T19:08:26.179Z,20.20
2018-05-29T19:10:54.192Z,20.20
2018-05-29T19:13:24.725Z,20.20
2018-05-29T19:15:55.667Z,20.10
2018-05-29T19:18:24.007Z,20.20
2018-05-29T19:20:53.700Z,20.20
2018-05-29T19:23:24.108Z,20.20
2018-05-29T19:25:51.702Z,20.20
2018-05-29T19:28:25.648Z,20.10
2018-05-29T19:30:55.775Z,20.10
2018-05-29T19:33:22.905Z,20.20
2018-05-29T19:35:56.126Z,20.10
2018-05-29T19:41:26.427Z,20.10
2018-05-29T19:43:54.367Z,20.20
2018-05-29T19:46:24.358Z,20.10
2018-05-29T19:48:57.847Z,19.80
2018-05-29T19:51:26.754Z,19.80
2018-05-29T19:53:54.998Z,19.80
2018-05-29T19:56:25.683Z,19.80
2018-05-29T19:58:58.391Z,19.80
2018-05-29T20:01:28.195Z,19.70
2018-05-29T20:03:55.919Z,19.70
2018-05-29T20:06:24.547Z,19.70
2018-05-29T20:08:55.183Z,19.70
2018-05-29T20:11:25.274Z,19.60
2018-05-29T20:13:55.956Z,19.60
2018-05-29T20:16:26.397Z,19.60
2018-05-29T20:18:53.720Z,19.70
2018-05-29T20:21:27.024Z,19.70
2018-05-29T20:23:55.069Z,19.70
2018-05-29T20:26:26.018Z,19.70
2018-05-29T20:28:56.262Z,19.70
2018-05-29T20:31:24.757Z,19.70
2018-05-29T20:33:54.420Z,19.60
2018-05-29T20:36:25.102Z,19.50
2018-05-29T20:38:55.931Z,19.50
2018-05-29T20:41:24.803Z,19.50
2018-05-29T20:43:54.786Z,19.50
2018-05-29T20:46:24.707Z,19.50
2018-05-29T20:48:53.066Z,19.50
2018-05-29T20:51:20.127Z,19.50
2018-05-29T20:56:44.954Z,19.50
2018-05-29T20:59:13.258Z,19.40
2018-05-29T21:01:41.166Z,19.30
2018-05-29T21:04:11.291Z,19.30
2018-05-29T21:06:38.410Z,19.30
2018-05-29T21:09:06.274Z,19.20
2018-05-29T21:11:33.341Z,19.20
2018-05-29T21:14:01.289Z,19.20
2018-05-29T21:16:29.363Z,19.20
2018-05-29T21:18:56.479Z,19.20
2018-05-29T21:21:27.910Z,19.20
2018-05-29T21:23:54.978Z,19.20
2018-05-29T21:26:23.003Z,19.10
2018-05-29T21:28:50.275Z,19.10
2018-05-29T21:31:17.309Z,19.00
2018-05-29T21:33:45.166Z,19.00
2018-05-29T21:36:15.051Z,19.00
2018-05-29T21:38:42.207Z,19.00
2018-05-29T21:41:09.292Z,19.10
2018-05-29T21:43:36.366Z,19.10
2018-05-29T21:46:03.549Z,19.10
2018-05-29T21:48:32.274Z,19.10
2018-05-29T21:50:59.564Z,19.10
2018-05-29T21:53:26.629Z,19.00
2018-05-29T21:55:54.741Z,19.10
2018-05-29T21:58:21.810Z,19.00
2018-05-29T22:00:49.863Z,19.00
2018-05-29T22:03:16.920Z,18.90
2018-05-29T22:05:43.967Z,18.90
2018-05-29T22:08:11.075Z,18.90
2018-05-29T22:10:38.932Z,19.00
2018-05-29T22:13:05.990Z,19.00
2018-05-29T22:15:33.075Z,19.00
2018-05-29T22:18:00.904Z,19.10
2018-05-29T22:20:28.063Z,19.00
2018-05-29T22:22:55.166Z,19.10
2018-05-29T22:25:23.138Z,19.00
2018-05-29T22:27:50.966Z,19.00
2018-05-29T22:30:18.290Z,18.90
2018-05-29T22:32:46.121Z,18.90
2018-05-29T22:35:13.195Z,18.90
2018-05-29T22:37:40.314Z,18.80
2018-05-29T22:42:57.250Z,18.80
2018-05-29T22:45:25.058Z,18.90
2018-05-29T22:48:00.096Z,18.90
2018-05-29T22:50:27.194Z,18.90
2018-05-29T22:52:58.761Z,19.00
2018-05-29T22:55:25.902Z,18.90
2018-05-29T22:57:52.958Z,18.90
2018-05-29T23:00:20.031Z,18.90
2018-05-29T23:02:47.070Z,18.90
2018-05-29T23:05:14.619Z,18.90
2018-05-29T23:07:41.720Z,18.90
2018-05-29T23:10:08.912Z,18.80
2018-05-29T23:12:36.009Z,18.70
2018-05-29T23:15:03.104Z,18.70
2018-05-29T23:17:30.254Z,18.70
2018-05-29T23:19:57.314Z,18.70
2018-05-29T23:22:24.380Z,18.70
2018-05-29T23:24:51.426Z,18.70
2018-05-29T23:27:18.550Z,18.60
2018-05-29T23:29:46.373Z,18.70
2018-05-29T23:32:13.453Z,18.60
2018-05-29T23:34:40.521Z,18.70
2018-05-29T23:37:11.468Z,18.70
2018-05-29T23:39:38.537Z,18.60
2018-05-29T23:42:05.585Z,18.50
2018-05-29T23:44:32.682Z,18.50
2018-05-29T23:47:00.054Z,18.40
2018-05-29T23:49:27.137Z,18.30
2018-05-29T23:51:54.210Z,18.30
2018-05-29T23:54:21.333Z,18.20
2018-05-29T23:56:52.428Z,18.20
2018-05-29T23:59:19.629Z,18.20
